Αρχική σελίδα
METAR-TAF:

METAR-TAF

Αεροδρόμια :

Γκραν Κανάρια, Ισπανία

γεωγραφικό πλάτος: 27-56N, γεωγραφικό μήκος: 015-23W, υψόμετρο: 23 μ

Παρών καιρός

Η αναφορά έγινε 14 λεπτά πριν, στις 03:00 UTC
Άνεμος 9 kt από Β/BA, μεταβλητός μεταξύ Β και BA
Θερμοκρασία 21°C
Υγρασία 73%
Πίεση 1017 hPa
Ορατότητα 10 χλμ και άνω
Αρκετά νέφη σε ύψος 2500 πόδια

METAR: GCLP 200300Z 02009KT 350V050 9999 BKN025 21/16 Q1017 NOSIG

Χρόνος: 04:14 (03:14 UTC)

Πρόγνωση Καιρού

Η αναφορά έγινε 1 ώρα και 14 λεπτά πριν, στις 02:00 UTC
Η πρόγνωση ισχύει από τις 20 στις 03 UTC έως τις 21 στις 03 UTC
Άνεμος 9 kt από Β/BΔ
Ορατότητα 10 χλμ και άνω
Λίγα νέφη σε ύψος 2500 πόδια

TAF: GCLP 200200Z 2003/2103 34009KT 9999 FEW025 TX26/2015Z TN19/2005Z

Μετεωρολογικές αναφορές και προγνώσεις για περισσότερα από 4000 αεροδρόμια (δελτία METAR και TAF).

Οι διαθέσιμοι σταθμοί απεικονίζονται στο χάρτη με κίτρινες και κόκκινες κουκκίδες.

Μετακινήστε το ποντίκι πάνω από τις κουκκίδες για να δείτε το όνομα του σταθμού.

Στη συνέχεια, κάντε κλικ για να δείτε τις μετεωρολογικές αναφορές και τις προγνώσεις καιρού.

Για να αλλάξετε το χάρτη: κάντε κλικ στα πράσινα κουμπιά με τον μαύρο σταυρό για να ζουμάρετε, στο πράσινο κουμπί με την παύλα για να αφαιρέσετε το ζουμ ή στα πράσινα βέλη για να αντιπαραβάλλετε χάρτες.


METAR-TAF: